Time;durP1;ratioP1;P1;durP2;ratioP2;P2;SDS_P1;SDS_P2;PMS_P1;PMS_P2;Temp;Humidity;BMP_temperature;BMP_pressure;BME280_temperature;BME280_humidity;BME280_pressure;Samples;Min_cycle;Max_cycle;Signal;HPM_P1;HPM_P2
2022/11/23 00:00:51;;;;;;;0.00;0.00;;;;;;;6.41;74.48;98437.84;4392019;32;35194;-91
2022/11/23 00:03:44;;;;;;;1.33;1.05;;;;;;;5.92;76.45;98434.06;4389675;32;33382;-93
2022/11/23 00:06:24;;;;;;;0.05;0.05;;;;;;;5.58;76.98;98435.59;4365580;32;32449;-93
2022/11/23 00:09:16;;;;;;;2.55;0.93;;;;;;;6.17;75.42;98424.13;4389579;32;32096;-93
2022/11/23 00:11:56;;;;;;;1.08;1.08;;;;;;;5.95;75.89;98432.16;4386161;32;33714;-92
2022/11/23 00:14:51;;;;;;;1.40;1.35;;;;;;;5.69;77.27;98428.06;4380056;32;32972;-91
2022/11/23 00:17:33;;;;;;;0.43;0.43;;;;;;;5.77;77.00;98433.81;4419931;32;33500;-91
2022/11/23 00:20:22;;;;;;;1.08;1.00;;;;;;;5.72;76.57;98443.66;4403481;32;33136;-90
2022/11/23 00:22:49;;;;;;;1.35;1.25;;;;;;;5.93;76.36;98433.97;4396327;32;32735;-91
2022/11/23 00:25:17;;;;;;;7.97;1.45;;;;;;;5.89;76.67;98437.66;4398457;32;33203;-92
2022/11/23 00:28:02;;;;;;;0.22;0.22;;;;;;;5.93;76.13;98438.37;4388857;32;32760;-90
2022/11/23 00:30:53;;;;;;;2.17;2.08;;;;;;;5.99;76.26;98432.88;4389682;32;32187;-90
2022/11/23 00:33:37;;;;;;;0.00;0.00;;;;;;;6.01;75.92;98433.63;4396010;32;32728;-90
2022/11/23 00:36:09;;;;;;;0.60;0.60;;;;;;;5.68;76.82;98431.63;4385499;32;34942;-89
2022/11/23 00:38:37;;;;;;;0.57;0.57;;;;;;;5.63;77.12;98431.00;4406071;32;33766;-91
2022/11/23 00:41:13;;;;;;;2.97;1.02;;;;;;;5.60;77.22;98425.88;4397959;32;33340;-90
2022/11/23 00:43:42;;;;;;;0.32;0.28;;;;;;;6.43;74.11;98429.91;4409350;32;33721;-89
2022/11/23 00:46:19;;;;;;;0.43;0.43;;;;;;;6.44;74.67;98423.72;4395050;32;33039;-90
2022/11/23 00:48:49;;;;;;;1.35;1.25;;;;;;;5.99;75.91;98431.09;4396201;32;33281;-89
2022/11/23 00:51:26;;;;;;;1.65;1.42;;;;;;;6.02;76.28;98432.72;4397513;32;32096;-89
2022/11/23 00:53:56;;;;;;;0.35;0.35;;;;;;;5.85;76.55;98433.47;4395596;32;33580;-91
2022/11/23 00:56:50;;;;;;;1.65;0.70;;;;;;;6.32;74.87;98430.44;4390367;32;35523;-90
2022/11/23 00:59:23;;;;;;;0.55;0.32;;;;;;;6.26;74.59;98428.91;4390654;32;33697;-90
2022/11/23 01:02:19;;;;;;;2.22;2.05;;;;;;;6.68;73.32;98414.63;4366175;32;34914;-88
2022/11/23 01:04:49;;;;;;;0.52;0.52;;;;;;;6.55;73.72;98424.91;4364192;32;32638;-90
2022/11/23 01:07:40;;;;;;;1.27;1.08;;;;;;;6.38;74.06;98427.50;4355313;32;33309;-91
2022/11/23 01:10:22;;;;;;;0.68;0.68;;;;;;;5.95;75.99;98421.69;4377329;32;32570;-90
2022/11/23 01:12:50;;;;;;;0.43;0.43;;;;;;;6.18;74.68;98425.84;4379247;32;33780;-89
2022/11/23 01:15:18;;;;;;;0.88;0.82;;;;;;;6.05;75.46;98411.62;4374109;32;33141;-88
2022/11/23 01:17:46;;;;;;;0.00;0.00;;;;;;;6.19;75.05;98422.28;4368486;32;33044;-90
2022/11/23 01:20:14;;;;;;;0.88;0.80;;;;;;;6.30;74.35;98420.00;4375931;32;33453;-90
2022/11/23 01:22:42;;;;;;;0.45;0.45;;;;;;;6.29;74.01;98413.06;4369963;32;32734;-88
2022/11/23 01:25:09;;;;;;;0.43;0.43;;;;;;;6.39;74.20;98414.31;4388370;32;34602;-94
2022/11/23 01:27:51;;;;;;;0.50;0.50;;;;;;;6.36;74.39;98403.97;4377118;32;33108;-93
2022/11/23 01:30:43;;;;;;;0.30;0.30;;;;;;;6.25;74.38;98408.87;4352941;32;32281;-93
2022/11/23 01:33:38;;;;;;;1.17;1.12;;;;;;;6.55;73.46;98392.56;4384560;32;33906;-93
2022/11/23 01:36:31;;;;;;;4.68;1.52;;;;;;;6.03;74.95;98392.47;4364494;32;33157;-92
2022/11/23 01:39:11;;;;;;;2.17;1.10;;;;;;;6.05;75.30;98398.50;4379330;32;32509;-93
2022/11/23 01:41:53;;;;;;;0.03;0.03;;;;;;;6.12;74.84;98399.91;4382995;32;32431;-94
2022/11/23 01:44:47;;;;;;;0.08;0.08;;;;;;;5.58;76.57;98393.69;4399926;32;34759;-93
2022/11/23 01:47:26;;;;;;;0.22;0.22;;;;;;;6.21;74.09;98375.88;4346469;32;33127;-93
2022/11/23 01:50:17;;;;;;;0.70;0.70;;;;;;;5.64;76.16;98396.03;4361855;32;32992;-90
2022/11/23 01:52:57;;;;;;;0.73;0.73;;;;;;;6.28;73.72;98387.78;4383548;32;32547;-92
2022/11/23 01:55:50;;;;;;;0.63;0.53;;;;;;;6.22;73.61;98388.09;4350365;32;32549;-88
2022/11/23 01:58:21;;;;;;;0.30;0.30;;;;;;;6.28;73.75;98374.66;4357493;32;33307;-88
2022/11/23 02:00:50;;;;;;;2.70;0.80;;;;;;;5.79;75.83;98387.47;4351618;32;33012;-89
2022/11/23 02:03:18;;;;;;;0.28;0.28;;;;;;;5.82;75.12;98386.47;4372110;32;33181;-88
2022/11/23 02:05:51;;;;;;;0.95;0.90;;;;;;;6.14;74.43;98382.34;4359605;32;33309;-89
2022/11/23 02:08:24;;;;;;;0.03;0.03;;;;;;;5.99;75.06;98375.25;4369287;32;32761;-89
2022/11/23 02:10:54;;;;;;;0.75;0.75;;;;;;;6.29;74.42;98381.59;4359118;32;33082;-90
2022/11/23 02:13:44;;;;;;;2.17;0.40;;;;;;;5.98;74.65;98386.63;4358713;32;34003;-89
2022/11/23 02:16:17;;;;;;;0.00;0.00;;;;;;;6.01;74.92;98381.25;4365354;32;32471;-89
2022/11/23 02:18:47;;;;;;;1.75;1.65;;;;;;;6.22;74.41;98384.59;4346188;32;33374;-90
2022/11/23 02:21:35;;;;;;;0.62;0.60;;;;;;;6.26;74.20;98373.88;4346932;32;33582;-89
2022/11/23 02:24:22;;;;;;;0.40;0.40;;;;;;;6.22;74.26;98379.34;4360205;32;33445;-90
2022/11/23 02:26:50;;;;;;;0.43;0.43;;;;;;;6.09;74.75;98381.72;4354808;32;32467;-92
2022/11/23 02:29:43;;;;;;;0.37;0.37;;;;;;;6.39;74.15;98384.63;4395977;32;34234;-94
2022/11/23 02:32:37;;;;;;;1.05;1.05;;;;;;;5.94;75.18;98385.09;4360939;32;34483;-93
2022/11/23 02:35:28;;;;;;;0.40;0.40;;;;;;;5.75;76.20;98385.91;4391057;32;32763;-93
2022/11/23 02:38:08;;;;;;;0.40;0.40;;;;;;;5.96;75.30;98378.84;4382666;32;32279;-94
2022/11/23 02:41:02;;;;;;;0.95;0.47;;;;;;;5.96;75.52;98383.22;4387459;32;34354;-87
2022/11/23 02:43:31;;;;;;;2.70;2.50;;;;;;;6.09;75.22;98379.09;4366505;32;33891;-87
2022/11/23 02:46:00;;;;;;;2.17;1.37;;;;;;;5.93;75.66;98385.97;4366431;32;33564;-88
2022/11/23 02:48:28;;;;;;;0.20;0.20;;;;;;;6.32;73.99;98367.50;4374203;32;34009;-87
2022/11/23 02:50:56;;;;;;;0.70;0.70;;;;;;;6.36;73.91;98369.91;4365925;32;33259;-91
2022/11/23 02:53:43;;;;;;;0.10;0.10;;;;;;;6.21;73.74;98361.94;4383701;32;32336;-90
2022/11/23 02:56:52;;;;;;;3.45;1.98;;;;;;;5.84;75.29;98369.78;4411703;32;34289;-90
2022/11/23 02:59:23;;;;;;;0.00;0.00;;;;;;;5.82;75.84;98387.31;4383959;32;33461;-89
2022/11/23 03:01:57;;;;;;;1.02;0.98;;;;;;;6.31;74.38;98379.75;4397835;32;34584;-91
2022/11/23 03:05:00;;;;;;;1.20;0.95;;;;;;;6.25;73.79;98374.81;4384214;32;32727;-91
2022/11/23 03:07:28;;;;;;;0.00;0.00;;;;;;;5.40;77.17;98385.75;4376336;32;32714;-88
2022/11/23 03:09:57;;;;;;;0.00;0.00;;;;;;;6.04;75.24;98370.63;4386276;32;33410;-89
2022/11/23 03:12:26;;;;;;;2.15;2.05;;;;;;;6.43;73.41;98380.94;4386116;32;32501;-91
2022/11/23 03:15:14;;;;;;;2.58;1.17;;;;;;;5.94;74.85;98374.59;4387312;32;33421;-90
2022/11/23 03:17:42;;;;;;;2.37;2.17;;;;;;;5.72;75.90;98365.09;4387695;32;33788;-93
2022/11/23 03:20:33;;;;;;;0.77;0.77;;;;;;;5.76;75.84;98368.44;4363757;32;32618;-91
2022/11/23 03:23:24;;;;;;;0.47;0.47;;;;;;;5.88;74.84;98376.53;4396232;32;33151;-92
2022/11/23 03:26:16;;;;;;;5.70;2.30;;;;;;;5.81;75.39;98382.16;4365449;32;33233;-91
2022/11/23 03:29:08;;;;;;;0.25;0.25;;;;;;;6.58;72.84;98377.53;4366500;32;32601;-92
2022/11/23 03:32:00;;;;;;;0.55;0.55;;;;;;;6.35;73.41;98378.66;4395231;32;32093;-91
2022/11/23 03:34:51;;;;;;;1.05;1.00;;;;;;;6.29;73.58;98365.88;4368566;32;33768;-91
2022/11/23 03:37:42;;;;;;;0.43;0.43;;;;;;;6.05;74.59;98374.94;4369786;32;32494;-88
2022/11/23 03:40:11;;;;;;;0.80;0.77;;;;;;;6.09;74.09;98373.88;4386682;32;32625;-94
2022/11/23 03:43:06;;;;;;;3.42;1.00;;;;;;;6.29;73.39;98365.03;4353432;32;33001;-93
2022/11/23 03:45:57;;;;;;;0.35;0.35;;;;;;;6.27;73.56;98378.22;4367345;32;34324;-93
2022/11/23 03:48:51;;;;;;;2.17;1.15;;;;;;;5.99;74.53;98372.63;4355895;32;34496;-93
2022/11/23 03:51:45;;;;;;;0.45;0.45;;;;;;;5.99;74.35;98367.38;4363022;32;35106;-93
2022/11/23 03:54:40;;;;;;;0.70;0.70;;;;;;;6.05;74.22;98383.63;4398132;32;34785;-93
2022/11/23 03:57:36;;;;;;;0.13;0.13;;;;;;;6.25;73.21;98377.44;4407803;32;33697;-92
2022/11/23 04:00:36;;;;;;;0.08;0.08;;;;;;;5.82;75.15;98382.06;4377867;32;32907;-90
2022/11/23 04:03:05;;;;;;;3.50;0.45;;;;;;;6.36;72.96;98376.91;4379947;32;33465;-90
2022/11/23 04:05:50;;;;;;;0.37;0.37;;;;;;;5.76;74.64;98379.75;4380026;32;33445;-90
2022/11/23 04:08:20;;;;;;;0.88;0.88;;;;;;;5.84;75.41;98367.16;4366583;32;33061;-90
2022/11/23 04:10:48;;;;;;;3.50;1.20;;;;;;;6.35;72.94;98365.56;4354561;32;32868;-89
2022/11/23 04:13:16;;;;;;;0.30;0.30;;;;;;;6.00;73.87;98385.63;4366997;32;32868;-89
2022/11/23 04:15:47;;;;;;;0.00;0.00;;;;;;;6.21;73.76;98372.41;4369384;32;33449;-89
2022/11/23 04:18:15;;;;;;;0.93;0.80;;;;;;;6.50;72.61;98373.59;4379210;32;32716;-90
2022/11/23 04:20:45;;;;;;;0.25;0.25;;;;;;;5.69;75.05;98391.41;4368406;32;32895;-91
2022/11/23 04:23:26;;;;;;;2.17;1.37;;;;;;;5.49;76.53;98373.16;4382378;32;33131;-91
2022/11/23 04:26:32;;;;;;;0.25;0.25;;;;;;;5.85;74.79;98374.09;4428052;32;34838;-89
2022/11/23 04:29:02;;;;;;;0.40;0.30;;;;;;;5.78;75.14;98380.50;4401355;32;34098;-89
2022/11/23 04:31:33;;;;;;;0.20;0.13;;;;;;;5.90;75.16;98385.19;4397538;32;32530;-89
2022/11/23 04:34:05;;;;;;;0.70;0.70;;;;;;;5.93;74.59;98378.13;4413947;32;34090;-89
2022/11/23 04:36:34;;;;;;;0.00;0.00;;;;;;;6.13;74.55;98380.66;4401253;32;32616;-90
2022/11/23 04:39:03;;;;;;;0.00;0.00;;;;;;;6.44;72.75;98384.41;4401500;32;32421;-90
2022/11/23 04:41:33;;;;;;;1.40;1.30;;;;;;;6.38;72.90;98377.69;4400803;32;32981;-90
2022/11/23 04:44:23;;;;;;;1.95;1.85;;;;;;;6.33;73.06;98382.31;4415908;32;32752;-90
2022/11/23 04:46:56;;;;;;;0.50;0.50;;;;;;;6.16;74.23;98372.63;4413498;32;33444;-91
2022/11/23 04:49:37;;;;;;;1.00;1.00;;;;;;;6.23;73.22;98400.25;4349211;32;32423;-92
2022/11/23 04:52:28;;;;;;;0.73;0.73;;;;;;;5.69;75.78;98374.84;4405237;32;32458;-92
2022/11/23 04:55:17;;;;;;;0.00;0.00;;;;;;;6.20;73.83;98379.44;4341508;32;32147;-90
2022/11/23 04:57:47;;;;;;;0.13;0.13;;;;;;;6.02;74.54;98394.25;4360924;32;31812;-91
2022/11/23 05:00:57;;;;;;;0.00;0.00;;;;;;;6.22;73.76;98381.97;4359470;32;33288;-90
2022/11/23 05:03:27;;;;;;;0.00;0.00;;;;;;;6.60;71.93;98380.94;4347384;32;33636;-89
2022/11/23 05:05:57;;;;;;;0.00;0.00;;;;;;;6.54;72.27;98377.75;4359817;32;33671;-89
2022/11/23 05:08:29;;;;;;;0.00;0.00;;;;;;;6.33;72.93;98388.41;4349891;32;32230;-92
2022/11/23 05:11:22;;;;;;;0.17;0.17;;;;;;;5.96;74.17;98404.19;4411043;32;33022;-91
2022/11/23 05:14:13;;;;;;;0.00;0.00;;;;;;;5.81;74.88;98388.25;4351763;32;32832;-90
2022/11/23 05:17:08;;;;;;;1.52;1.20;;;;;;;6.00;74.30;98384.78;4374370;32;34342;-90
2022/11/23 05:19:59;;;;;;;0.35;0.35;;;;;;;6.33;73.38;98383.16;4356257;32;31925;-91
2022/11/23 05:22:48;;;;;;;0.88;0.52;;;;;;;5.97;74.08;98391.00;4395354;32;32755;-91
2022/11/23 05:25:45;;;;;;;0.20;0.20;;;;;;;6.06;73.98;98389.72;4380958;32;35474;-91
2022/11/23 05:28:26;;;;;;;0.75;0.43;;;;;;;6.01;74.71;98391.72;4371943;32;32626;-91
2022/11/23 05:31:09;;;;;;;0.45;0.35;;;;;;;6.10;73.26;98376.41;4383294;32;32187;-90
2022/11/23 05:33:39;;;;;;;0.35;0.35;;;;;;;5.60;74.99;98377.00;4371422;32;32477;-91
2022/11/23 05:36:33;;;;;;;0.45;0.30;;;;;;;5.77;74.39;98378.81;4373822;32;32618;-90
2022/11/23 05:39:25;;;;;;;0.00;0.00;;;;;;;5.76;74.42;98371.03;4354180;32;33390;-90
2022/11/23 05:42:08;;;;;;;0.20;0.20;;;;;;;6.00;73.96;98375.16;4377077;32;32517;-90
2022/11/23 05:44:41;;;;;;;0.13;0.10;;;;;;;5.87;74.49;98374.84;4365779;32;33217;-89
2022/11/23 05:47:10;;;;;;;0.28;0.28;;;;;;;6.00;73.78;98379.53;4378809;32;33665;-90
2022/11/23 05:49:54;;;;;;;0.00;0.00;;;;;;;5.94;73.70;98367.59;4390364;32;32804;-87
2022/11/23 05:52:24;;;;;;;0.90;0.90;;;;;;;5.87;74.40;98376.63;4381456;32;32556;-95
2022/11/23 05:54:56;;;;;;;0.35;0.35;;;;;;;6.03;73.63;98380.25;4378356;32;34107;-90
2022/11/23 05:57:28;;;;;;;0.43;0.30;;;;;;;6.00;73.33;98374.31;4374535;32;32268;-90
2022/11/23 06:00:00;;;;;;;1.25;0.93;;;;;;;5.94;74.35;98380.69;4372786;32;32770;-89
2022/11/23 06:02:38;;;;;;;0.20;0.20;;;;;;;6.17;73.35;98376.94;4384138;32;32080;-90
2022/11/23 06:05:11;;;;;;;0.35;0.35;;;;;;;5.71;74.72;98376.50;4376066;32;32759;-89
2022/11/23 06:07:41;;;;;;;0.45;0.45;;;;;;;5.99;73.67;98372.63;4376320;32;34254;-89
2022/11/23 06:10:17;;;;;;;0.10;0.10;;;;;;;5.55;75.18;98388.59;4389781;32;33536;-90
2022/11/23 06:12:46;;;;;;;0.57;0.47;;;;;;;5.39;75.34;98391.91;4365544;32;31916;-89
2022/11/23 06:15:15;;;;;;;0.62;0.62;;;;;;;5.96;74.29;98398.94;4372715;32;34894;-90
2022/11/23 06:17:44;;;;;;;0.20;0.20;;;;;;;6.26;73.10;98400.09;4387227;32;34717;-90
2022/11/23 06:20:13;;;;;;;0.20;0.10;;;;;;;6.24;73.37;98388.84;4373442;32;33367;-89
2022/11/23 06:22:42;;;;;;;0.77;0.68;;;;;;;6.22;73.21;98395.06;4377250;32;32894;-91
2022/11/23 06:25:11;;;;;;;0.30;0.30;;;;;;;6.32;72.70;98402.44;4352762;32;32651;-89
2022/11/23 06:27:54;;;;;;;0.00;0.00;;;;;;;6.23;73.52;98397.62;4363733;32;32617;-90
2022/11/23 06:33:03;;;;;;;0.85;0.82;;;;;;;6.06;73.95;98402.81;4378883;32;32758;-89
2022/11/23 06:35:34;;;;;;;0.55;0.55;;;;;;;5.85;74.85;98402.91;4378315;32;33952;-89
2022/11/23 06:38:04;;;;;;;1.02;0.93;;;;;;;6.21;73.87;98406.47;4375962;32;33908;-89
2022/11/23 06:40:32;;;;;;;0.17;0.17;;;;;;;6.46;72.93;98406.13;4378005;32;34001;-90
2022/11/23 06:43:03;;;;;;;0.13;0.13;;;;;;;6.62;72.31;98409.72;4367373;32;32243;-92
2022/11/23 06:45:40;;;;;;;0.00;0.00;;;;;;;6.46;72.91;98409.63;4379136;32;33686;-91
2022/11/23 06:48:43;;;;;;;0.10;0.10;;;;;;;6.23;73.42;98404.66;4416426;32;34023;-91
2022/11/23 06:51:35;;;;;;;0.15;0.13;;;;;;;6.19;73.74;98403.09;4406345;32;33545;-91
2022/11/23 06:54:21;;;;;;;1.48;0.73;;;;;;;6.22;74.39;98406.44;4406087;32;32669;-91
2022/11/23 06:57:08;;;;;;;;;;;;;;;5.77;75.75;98407.63;4405564;32;32351;-91
2022/11/23 06:59:38;;;;;;;0.00;0.00;;;;;;;6.02;75.11;98404.72;4402622;32;33524;-91
2022/11/23 07:02:35;;;;;;;0.10;0.10;;;;;;;6.30;73.98;98409.50;4417564;32;32856;-94
2022/11/23 07:05:06;;;;;;;0.22;0.22;;;;;;;5.96;74.44;98417.28;4402685;32;32979;-90
2022/11/23 07:07:53;;;;;;;0.00;0.00;;;;;;;6.26;73.83;98414.97;4386350;32;33747;-89
2022/11/23 07:11:01;;;;;;;0.00;0.00;;;;;;;6.20;74.43;98413.50;4384430;32;32620;-91
2022/11/23 07:14:04;;;;;;;0.32;0.32;;;;;;;6.58;73.19;98410.78;4371692;32;33095;-90
2022/11/23 07:16:37;;;;;;;0.05;0.05;;;;;;;6.31;73.89;98420.84;4391636;32;32493;-90
2022/11/23 07:19:08;;;;;;;0.00;0.00;;;;;;;6.20;74.63;98413.50;4393343;32;33941;-90
2022/11/23 07:21:38;;;;;;;0.00;0.00;;;;;;;6.39;74.47;98413.47;4390853;32;33303;-90
2022/11/23 07:24:19;;;;;;;0.55;0.55;;;;;;;6.68;73.20;98417.25;4392518;32;33103;-91
2022/11/23 07:29:25;;;;;;;0.45;0.45;;;;;;;6.53;74.01;98421.50;4384351;32;32552;-90
2022/11/23 07:31:56;;;;;;;0.15;0.15;;;;;;;6.86;73.20;98426.84;4369053;32;34181;-90
2022/11/23 07:34:50;;;;;;;0.57;0.57;;;;;;;6.98;72.44;98421.88;4379871;32;32034;-90
2022/11/23 07:37:36;;;;;;;1.90;1.60;;;;;;;6.79;72.73;98435.97;4355048;32;31955;-90
2022/11/23 07:40:18;;;;;;;1.48;1.08;;;;;;;6.20;74.54;98434.47;4429381;32;33765;-92
2022/11/23 07:43:02;;;;;;;0.43;0.43;;;;;;;6.68;73.09;98436.47;4386122;32;32539;-90
2022/11/23 07:45:33;;;;;;;0.98;0.93;;;;;;;6.30;74.44;98434.88;4363335;32;33051;-90
2022/11/23 07:48:23;;;;;;;0.10;0.10;;;;;;;6.50;74.21;98441.75;4389465;32;32538;-90
2022/11/23 07:51:30;;;;;;;0.43;0.43;;;;;;;7.00;71.99;98439.25;4396684;32;33968;-91
2022/11/23 07:54:04;;;;;;;0.95;0.52;;;;;;;6.83;72.84;98444.50;4402708;32;33406;-91
2022/11/23 07:56:36;;;;;;;0.43;0.43;;;;;;;6.93;72.79;98441.34;4400874;32;33601;-91
2022/11/23 07:59:21;;;;;;;0.20;0.20;;;;;;;6.52;73.93;98446.03;4392748;32;32627;-89
2022/11/23 08:01:51;;;;;;;0.00;0.00;;;;;;;6.15;74.82;98446.94;4383546;32;33811;-89
2022/11/23 08:04:30;;;;;;;0.00;0.00;;;;;;;6.49;74.23;98456.66;4388685;32;33747;-89
2022/11/23 08:07:02;;;;;;;0.10;0.10;;;;;;;6.99;72.26;98457.72;4393305;32;33934;-89
2022/11/23 08:09:33;;;;;;;0.08;0.08;;;;;;;6.85;72.74;98454.00;4383893;32;32631;-90
2022/11/23 08:12:15;;;;;;;1.25;0.68;;;;;;;7.04;72.51;98458.34;4346967;32;32449;-93
2022/11/23 08:14:57;;;;;;;0.43;0.43;;;;;;;6.95;72.58;98459.63;4390994;32;32954;-94
2022/11/23 08:17:39;;;;;;;0.25;0.25;;;;;;;7.18;71.53;98445.34;4396333;32;32537;-86
2022/11/23 08:20:08;;;;;;;0.10;0.10;;;;;;;6.91;73.28;98452.84;4393813;32;32241;-86
2022/11/23 08:22:45;;;;;;;0.30;0.30;;;;;;;6.77;73.75;98453.53;4397069;32;33565;-86
2022/11/23 08:25:15;;;;;;;0.00;0.00;;;;;;;6.87;73.35;98454.75;4390595;32;34688;-86
2022/11/23 08:27:43;;;;;;;2.17;1.08;;;;;;;6.98;73.09;98454.25;4384905;32;33695;-86
2022/11/23 08:30:14;;;;;;;2.08;1.55;;;;;;;6.73;73.64;98459.84;4389103;32;32690;-86
2022/11/23 08:32:44;;;;;;;0.05;0.05;;;;;;;6.78;73.16;98457.00;4376566;32;33307;-86
2022/11/23 08:35:22;;;;;;;0.00;0.00;;;;;;;7.30;71.76;98447.31;4395979;32;33914;-86
2022/11/23 08:37:50;;;;;;;0.85;0.85;;;;;;;7.40;71.16;98440.66;4392683;32;33686;-86
2022/11/23 08:40:23;;;;;;;0.75;0.45;;;;;;;7.17;72.52;98447.13;4401986;32;33315;-87
2022/11/23 08:42:59;;;;;;;0.32;0.32;;;;;;;7.43;71.57;98450.16;4396454;32;34588;-87
2022/11/23 08:45:29;;;;;;;0.20;0.20;;;;;;;7.31;72.37;98454.31;4401246;32;33848;-87
2022/11/23 08:48:02;;;;;;;0.00;0.00;;;;;;;7.19;72.91;98458.38;4389136;32;34406;-86
2022/11/23 08:50:34;;;;;;;0.10;0.10;;;;;;;6.87;73.66;98462.63;4396280;32;33420;-87
2022/11/23 08:53:04;;;;;;;0.15;0.15;;;;;;;6.78;74.29;98463.09;4383924;32;33759;-87
2022/11/23 08:55:36;;;;;;;0.20;0.20;;;;;;;7.00;73.75;98464.66;4383613;32;34613;-86
2022/11/23 08:58:07;;;;;;;0.47;0.47;;;;;;;7.48;72.01;98457.81;4377501;32;32753;-87
2022/11/23 09:00:42;;;;;;;0.00;0.00;;;;;;;7.40;71.85;98463.44;4388240;32;33229;-86
2022/11/23 09:03:10;;;;;;;0.08;0.08;;;;;;;7.55;71.89;98460.03;4380925;32;33333;-86
2022/11/23 09:05:39;;;;;;;1.48;1.08;;;;;;;7.78;70.50;98466.69;4401287;32;32904;-86
2022/11/23 09:08:07;;;;;;;0.20;0.20;;;;;;;7.52;72.22;98459.34;4406804;32;33977;-86
2022/11/23 09:10:37;;;;;;;0.10;0.10;;;;;;;7.59;71.61;98468.59;4385999;32;33587;-86
2022/11/23 09:13:13;;;;;;;0.00;0.00;;;;;;;7.51;71.48;98474.25;4394641;32;32811;-86
2022/11/23 09:15:42;;;;;;;0.60;0.60;;;;;;;7.77;71.16;98472.03;4389223;32;33093;-86
2022/11/23 09:18:11;;;;;;;0.47;0.47;;;;;;;7.98;70.33;98480.56;4385057;32;33954;-86
2022/11/23 09:20:39;;;;;;;0.00;0.00;;;;;;;7.69;70.63;98477.69;4384598;32;32580;-87
2022/11/23 09:23:08;;;;;;;0.28;0.28;;;;;;;7.83;70.73;98471.69;4392215;32;34032;-86
2022/11/23 09:25:47;;;;;;;0.00;0.00;;;;;;;7.66;71.07;98478.69;4393140;32;32945;-86
2022/11/23 09:28:18;;;;;;;0.00;0.00;;;;;;;7.51;72.11;98478.66;4388645;32;33286;-87
2022/11/23 09:30:47;;;;;;;0.20;0.20;;;;;;;7.62;72.07;98469.28;4393040;32;32239;-86
2022/11/23 09:33:24;;;;;;;0.15;0.15;;;;;;;7.65;71.87;98470.91;4382607;32;33356;-88
2022/11/23 09:36:01;;;;;;;1.45;1.35;;;;;;;7.76;71.49;98471.19;4388721;32;33264;-86
2022/11/23 09:38:30;;;;;;;0.00;0.00;;;;;;;7.90;70.83;98468.66;4389353;32;32631;-86
2022/11/23 09:41:22;;;;;;;0.22;0.22;;;;;;;7.68;71.36;98474.19;4381604;32;33230;-87
2022/11/23 09:44:02;;;;;;;0.08;0.08;;;;;;;7.57;71.92;98467.84;4387573;32;33489;-87
2022/11/23 09:46:50;;;;;;;0.50;0.50;;;;;;;7.88;71.53;98465.28;4381416;32;33106;-87
2022/11/23 09:49:31;;;;;;;0.22;0.22;;;;;;;7.80;71.53;98464.84;4392068;32;33341;-88
2022/11/23 09:52:01;;;;;;;0.08;0.08;;;;;;;8.16;70.75;98458.50;4373127;32;32454;-88
2022/11/23 09:54:36;;;;;;;0.15;0.15;;;;;;;8.28;69.96;98455.19;4394821;32;33701;-88
2022/11/23 09:57:15;;;;;;;0.00;0.00;;;;;;;8.18;70.51;98464.53;4369034;32;34172;-87
2022/11/23 09:59:49;;;;;;;0.28;0.10;;;;;;;7.78;71.44;98461.41;4369767;32;31944;-88
2022/11/23 10:02:22;;;;;;;0.20;0.15;;;;;;;7.98;70.97;98451.63;4374844;32;32806;-88
2022/11/23 10:04:52;;;;;;;4.85;1.15;;;;;;;7.62;72.04;98450.91;4375962;32;33992;-88
2022/11/23 10:07:34;;;;;;;0.00;0.00;;;;;;;7.62;71.92;98458.78;4383004;32;32620;-88
2022/11/23 10:10:10;;;;;;;0.28;0.28;;;;;;;8.03;70.30;98454.88;4395485;32;32879;-88
2022/11/23 10:12:44;;;;;;;0.52;0.52;;;;;;;8.07;71.02;98456.38;4395045;32;32495;-91
2022/11/23 10:15:57;;;;;;;0.30;0.30;;;;;;;8.09;70.79;98457.16;4395906;32;32625;-92
2022/11/23 10:18:53;;;;;;;0.10;0.10;;;;;;;7.77;71.73;98465.00;4362426;32;34592;-93
2022/11/23 10:21:47;;;;;;;0.00;0.00;;;;;;;7.86;72.11;98459.25;4400261;32;34208;-92
2022/11/23 10:24:43;;;;;;;0.00;0.00;;;;;;;8.26;70.46;98450.94;4417744;32;32293;-89
2022/11/23 10:27:18;;;;;;;0.00;0.00;;;;;;;7.84;71.90;98455.84;4394509;32;33778;-86
2022/11/23 10:29:48;;;;;;;0.10;0.10;;;;;;;7.61;72.92;98451.00;4383382;32;32436;-87
2022/11/23 10:32:39;;;;;;;0.08;0.08;;;;;;;8.05;71.20;98458.25;4401407;32;34427;-87
2022/11/23 10:35:27;;;;;;;0.20;0.20;;;;;;;8.27;70.60;98442.97;4393652;32;32766;-89
2022/11/23 10:38:13;;;;;;;0.40;0.40;;;;;;;7.73;72.18;98446.84;4392081;32;33705;-87
2022/11/23 10:43:47;;;;;;;0.10;0.10;;;;;;;8.00;71.60;98444.50;4417298;32;32359;-91
2022/11/23 10:46:28;;;;;;;0.00;0.00;;;;;;;7.80;72.46;98449.06;4382385;32;32474;-93
2022/11/23 10:49:20;;;;;;;0.00;0.00;;;;;;;8.32;70.71;98440.94;4405186;32;32540;-92
2022/11/23 10:52:31;;;;;;;0.25;0.25;;;;;;;8.57;69.09;98450.09;4371869;32;34514;-88
2022/11/23 10:55:03;;;;;;;0.50;0.50;;;;;;;8.15;70.05;98449.75;4375879;32;34187;-87
2022/11/23 10:57:42;;;;;;;0.00;0.00;;;;;;;7.92;71.46;98443.12;4363832;32;32785;-88
2022/11/23 11:03:21;;;;;;;0.85;0.47;;;;;;;8.08;71.19;98439.69;4373926;32;32691;-87
2022/11/23 11:05:50;;;;;;;0.52;0.52;;;;;;;8.26;70.80;98445.69;4360281;32;32043;-87
2022/11/23 11:09:02;;;;;;;0.00;0.00;;;;;;;8.12;71.41;98444.69;4361136;32;33418;-86
2022/11/23 11:11:38;;;;;;;0.15;0.15;;;;;;;8.18;70.43;98438.25;4361449;32;34529;-92
2022/11/23 11:14:22;;;;;;;0.30;0.30;;;;;;;7.57;73.40;98441.56;4396741;32;32794;-91
2022/11/23 11:17:25;;;;;;;0.05;0.05;;;;;;;7.96;71.73;98444.66;4393439;32;32129;-91
2022/11/23 11:23:03;;;;;;;0.28;0.28;;;;;;;8.16;71.58;98440.09;4402608;32;33627;-90
2022/11/23 11:25:36;;;;;;;0.30;0.30;;;;;;;8.46;70.13;98429.69;4411818;32;33198;-90
2022/11/23 11:28:17;;;;;;;0.15;0.15;;;;;;;8.12;71.36;98423.66;4401767;32;32758;-90
2022/11/23 11:31:38;;;;;;;0.00;0.00;;;;;;;8.43;69.76;98437.72;4402718;32;33472;-89
2022/11/23 11:34:20;;;;;;;0.65;0.65;;;;;;;8.05;71.59;98439.84;4386574;32;32916;-90
2022/11/23 11:37:08;;;;;;;0.00;0.00;;;;;;;8.52;69.32;98441.62;4406262;32;33217;-90
2022/11/23 11:39:49;;;;;;;0.25;0.25;;;;;;;8.31;70.28;98444.50;4402537;32;33351;-90
2022/11/23 11:43:11;;;;;;;1.67;1.27;;;;;;;8.44;69.63;98442.06;4367572;32;33695;-91
2022/11/23 11:45:46;;;;;;;0.10;0.10;;;;;;;8.58;68.97;98436.00;4362803;32;33299;-91
2022/11/23 11:48:56;;;;;;;1.80;0.82;;;;;;;8.28;70.46;98438.56;4390304;32;33142;-91
2022/11/23 11:51:42;;;;;;;0.00;0.00;;;;;;;8.40;70.08;98444.03;4395935;32;32581;-90
2022/11/23 11:55:00;;;;;;;0.00;0.00;;;;;;;8.41;69.55;98450.97;4392626;32;35222;-90
2022/11/23 11:57:45;;;;;;;0.55;0.55;;;;;;;8.44;70.33;98449.94;4354583;32;32449;-92
2022/11/23 12:00:38;;;;;;;0.20;0.20;;;;;;;8.30;70.50;98455.09;4394621;32;34582;-91
2022/11/23 12:03:49;;;;;;;0.13;0.13;;;;;;;8.59;69.04;98454.34;4372882;32;32466;-89
2022/11/23 12:06:39;;;;;;;0.10;0.10;;;;;;;8.63;69.09;98460.28;4385936;32;32287;-92
2022/11/23 12:12:27;;;;;;;0.00;0.00;;;;;;;8.68;68.37;98451.16;4386294;32;33557;-91
2022/11/23 12:15:17;;;;;;;0.00;0.00;;;;;;;8.50;69.62;98456.63;4409332;32;33759;-94
2022/11/23 12:18:17;;;;;;;0.30;0.22;;;;;;;8.66;69.13;98454.84;4385261;32;31897;-93
2022/11/23 12:21:28;;;;;;;3.50;1.35;;;;;;;8.75;68.96;98453.47;4372356;32;33865;-87
2022/11/23 12:24:41;;;;;;;0.08;0.08;;;;;;;8.81;69.16;98450.47;4371829;32;33001;-96
2022/11/23 12:28:03;;;;;;;0.47;0.47;;;;;;;9.15;67.98;98449.34;4413012;32;35009;-91
2022/11/23 12:30:34;;;;;;;0.05;0.05;;;;;;;8.97;67.94;98446.87;4400862;32;31970;-93
2022/11/23 12:33:17;;;;;;;;;;;;;;;9.24;66.93;98439.09;4367272;32;32947;-93
2022/11/23 12:36:25;;;;;;;0.20;0.20;;;;;;;9.06;67.29;98436.72;4394922;32;32637;-92
2022/11/23 12:39:53;;;;;;;0.00;0.00;;;;;;;8.76;68.30;98440.22;4368421;32;34647;-91
2022/11/23 12:43:07;;;;;;;0.20;0.20;;;;;;;8.95;67.42;98440.00;4407339;32;32739;-91
2022/11/23 12:45:59;;;;;;;;;;;;;;;8.46;69.34;98437.56;4360165;32;32546;-92
2022/11/23 12:48:52;;;;;;;0.08;0.08;;;;;;;8.74;68.31;98441.25;4382763;32;33578;-91
2022/11/23 12:52:26;;;;;;;0.47;0.47;;;;;;;8.83;68.14;98438.94;4366615;32;33139;-91
2022/11/23 12:55:23;;;;;;;1.02;0.75;;;;;;;8.67;69.03;98443.38;4361904;32;32515;-92
2022/11/23 13:02:38;;;;;;;1.08;1.08;;;;;;;8.68;68.18;98442.44;4380794;32;34810;-91
2022/11/23 13:06:06;;;;;;;0.80;0.80;;;;;;;8.70;68.59;98446.69;4385068;32;33677;-92
2022/11/23 13:09:02;;;;;;;0.00;0.00;;;;;;;8.76;68.22;98450.75;4393608;32;32632;-91
2022/11/23 13:12:14;;;;;;;0.75;0.75;;;;;;;8.91;68.01;98449.00;4394184;32;32385;-91